Time;durP1;ratioP1;P1;durP2;ratioP2;P2;SDS_P1;SDS_P2;PMS_P1;PMS_P2;Temp;Humidity;BMP_temperature;BMP_pressure;BME280_temperature;BME280_humidity;BME280_pressure;Samples;Min_cycle;Max_cycle;Signal;HPM_P1;HPM_P2
2022/10/18 00:02:22;;;;;;;8.00;5.00;;;;;;;;;;5050833;28;20430;-47
2022/10/18 00:04:48;;;;;;;7.30;5.80;;;;;;;;;;5051402;28;20386;-47
2022/10/18 00:07:14;;;;;;;5.47;4.90;;;;;;;;;;5051543;28;20376;-46
2022/10/18 00:09:40;;;;;;;8.43;4.20;;;;;;;;;;5051237;28;20420;-47
2022/10/18 00:12:07;;;;;;;4.90;4.40;;;;;;;;;;5050741;28;20381;-47
2022/10/18 00:14:33;;;;;;;6.70;4.60;;;;;;;;;;5051211;28;20391;-46
2022/10/18 00:16:59;;;;;;;10.53;5.67;;;;;;;;;;5051341;28;20389;-48
2022/10/18 00:19:25;;;;;;;5.63;4.40;;;;;;;;;;5051375;28;20397;-45
2022/10/18 00:21:51;;;;;;;8.30;5.03;;;;;;;;;;5050575;28;20435;-47
2022/10/18 00:24:17;;;;;;;4.23;3.93;;;;;;;;;;5051329;28;20374;-47
2022/10/18 00:26:43;;;;;;;5.63;5.13;;;;;;;;;;5052009;28;20393;-47
2022/10/18 00:29:12;;;;;;;5.13;4.70;;;;;;;;;;5054778;28;20415;-47
2022/10/18 00:31:38;;;;;;;5.37;4.80;;;;;;;;;;5054294;28;20908;-47
2022/10/18 00:34:10;;;;;;;7.77;4.30;;;;;;;;;;5054999;28;20444;-46
2022/10/18 00:36:36;;;;;;;5.40;3.83;;;;;;;;;;5054876;28;20376;-45
2022/10/18 00:39:03;;;;;;;4.60;4.07;;;;;;;;;;5055244;28;20431;-48
2022/10/18 00:41:30;;;;;;;4.53;4.13;;;;;;;;;;5054030;28;20935;-47
2022/10/18 00:43:56;;;;;;;5.33;3.80;;;;;;;;;;5055132;28;20756;-47
2022/10/18 00:46:23;;;;;;;6.60;4.00;;;;;;;;;;5054677;28;20424;-48
2022/10/18 00:48:49;;;;;;;6.30;4.13;;;;;;;;;;5054431;28;20425;-46
2022/10/18 00:51:16;;;;;;;7.40;4.40;;;;;;;;;;5054404;28;20490;-44
2022/10/18 00:53:42;;;;;;;4.53;3.73;;;;;;;;;;5054517;28;20926;-46
2022/10/18 00:56:08;;;;;;;6.47;4.30;;;;;;;;;;5054331;28;20386;-48
2022/10/18 00:58:34;;;;;;;4.03;3.67;;;;;;;;;;5054444;28;20936;-45
2022/10/18 01:01:00;;;;;;;6.30;4.33;;;;;;;;;;5053275;28;20458;-44
2022/10/18 01:03:26;;;;;;;5.43;4.30;;;;;;;;;;5053863;28;20405;-47
2022/10/18 01:05:52;;;;;;;9.13;3.40;;;;;;;;;;5053752;28;20380;-47
2022/10/18 01:08:40;;;;;;;7.93;4.63;;;;;;;;;;5054031;28;20453;-45
2022/10/18 01:11:06;;;;;;;5.53;4.67;;;;;;;;;;5053593;28;20875;-46
2022/10/18 01:13:38;;;;;;;4.63;4.00;;;;;;;;;;5054439;28;20453;-45
2022/10/18 01:16:09;;;;;;;5.00;4.00;;;;;;;;;;5054182;28;20400;-46
2022/10/18 01:18:55;;;;;;;5.40;3.97;;;;;;;;;;5053958;28;20877;-46
2022/10/18 01:21:31;;;;;;;5.73;4.40;;;;;;;;;;5042144;28;20462;-46
2022/10/18 01:24:12;;;;;;;5.23;3.63;;;;;;;;;;5054227;28;20372;-46
2022/10/18 01:26:40;;;;;;;3.70;3.40;;;;;;;;;;5053829;28;20844;-48
2022/10/18 01:29:09;;;;;;;7.30;3.40;;;;;;;;;;5053744;28;20431;-48
2022/10/18 01:31:39;;;;;;;4.13;3.20;;;;;;;;;;5053103;28;20388;-45
2022/10/18 01:34:06;;;;;;;2.97;2.63;;;;;;;;;;5054213;28;20758;-46
2022/10/18 01:36:33;;;;;;;3.20;2.90;;;;;;;;;;5053439;28;20391;-48
2022/10/18 01:39:01;;;;;;;6.30;3.33;;;;;;;;;;5052809;28;20482;-47
2022/10/18 01:41:28;;;;;;;3.10;2.90;;;;;;;;;;5052950;28;20425;-49
2022/10/18 01:43:58;;;;;;;3.33;2.63;;;;;;;;;;5053528;28;20402;-48
2022/10/18 01:46:25;;;;;;;3.33;3.03;;;;;;;;;;5053626;28;20464;-48
2022/10/18 01:48:52;;;;;;;8.80;4.30;;;;;;;;;;5053395;28;20469;-45
2022/10/18 01:51:19;;;;;;;3.30;2.80;;;;;;;;;;5052999;28;20385;-47
2022/10/18 01:53:45;;;;;;;3.50;3.30;;;;;;;;;;5053521;28;20415;-48
2022/10/18 01:56:11;;;;;;;6.00;3.80;;;;;;;;;;5053608;28;20407;-49
2022/10/18 01:58:41;;;;;;;9.13;4.80;;;;;;;;;;5053146;28;20502;-46
2022/10/18 02:01:17;;;;;;;4.00;3.60;;;;;;;;;;5052667;28;20738;-46
2022/10/18 02:03:45;;;;;;;3.80;3.40;;;;;;;;;;5053208;28;20892;-48
2022/10/18 02:06:19;;;;;;;5.83;4.37;;;;;;;;;;5053204;28;20406;-47
2022/10/18 02:09:00;;;;;;;6.10;5.50;;;;;;;;;;5053007;28;20914;-48
2022/10/18 02:11:26;;;;;;;6.93;5.00;;;;;;;;;;5052411;28;20794;-47
2022/10/18 02:13:55;;;;;;;6.87;5.10;;;;;;;;;;5052969;28;20417;-47
2022/10/18 02:16:24;;;;;;;4.67;4.30;;;;;;;;;;5053008;28;20374;-46
2022/10/18 02:18:52;;;;;;;8.37;4.67;;;;;;;;;;5052781;28;20522;-48
2022/10/18 02:21:19;;;;;;;4.80;4.40;;;;;;;;;;5052210;28;20560;-47
2022/10/18 02:23:45;;;;;;;10.77;5.00;;;;;;;;;;5052837;28;20783;-47
2022/10/18 02:26:11;;;;;;;10.83;5.17;;;;;;;;;;5052874;28;20808;-47
2022/10/18 02:28:38;;;;;;;11.03;5.00;;;;;;;;;;5052802;28;20560;-47
2022/10/18 02:31:07;;;;;;;4.37;4.07;;;;;;;;;;5052017;28;20391;-46
2022/10/18 02:33:35;;;;;;;7.40;4.80;;;;;;;;;;5052694;28;20400;-46
2022/10/18 02:36:09;;;;;;;11.70;4.67;;;;;;;;;;5052405;28;20752;-48
2022/10/18 02:38:35;;;;;;;6.70;4.23;;;;;;;;;;5052582;28;20484;-46
2022/10/18 02:41:01;;;;;;;6.90;4.30;;;;;;;;;;5051761;28;20463;-46
2022/10/18 02:43:27;;;;;;;11.00;4.93;;;;;;;;;;5052500;28;20381;-45
2022/10/18 02:45:53;;;;;;;17.00;4.40;;;;;;;;;;5052384;28;20390;-47
2022/10/18 02:48:19;;;;;;;5.13;4.63;;;;;;;;;;5052244;28;20427;-47
2022/10/18 02:50:45;;;;;;;9.33;4.63;;;;;;;;;;5052093;28;20470;-47
2022/10/18 02:53:10;;;;;;;6.27;4.70;;;;;;;;;;5052074;28;20380;-47
2022/10/18 02:55:36;;;;;;;6.03;5.00;;;;;;;;;;5052242;28;20398;-47
2022/10/18 02:58:02;;;;;;;10.20;5.20;;;;;;;;;;5052088;28;20496;-45
2022/10/18 03:00:28;;;;;;;6.23;5.63;;;;;;;;;;5051929;28;20453;-44
2022/10/18 03:02:54;;;;;;;8.23;6.23;;;;;;;;;;5051608;28;20398;-48
2022/10/18 03:05:20;;;;;;;6.57;5.57;;;;;;;;;;5052086;28;20954;-44
2022/10/18 03:07:47;;;;;;;8.00;5.60;;;;;;;;;;5052185;28;20418;-47
2022/10/18 03:10:13;;;;;;;9.80;5.73;;;;;;;;;;5052028;28;20977;-47
2022/10/18 03:12:39;;;;;;;6.20;5.00;;;;;;;;;;5051629;28;20376;-46
2022/10/18 03:15:05;;;;;;;7.10;5.20;;;;;;;;;;5052005;28;20918;-47
2022/10/18 03:17:31;;;;;;;8.73;5.93;;;;;;;;;;5051883;28;20912;-46
2022/10/18 03:19:57;;;;;;;10.47;5.73;;;;;;;;;;5051693;28;20411;-45
2022/10/18 03:22:24;;;;;;;6.97;5.90;;;;;;;;;;5051355;28;20519;-48
2022/10/18 03:24:50;;;;;;;8.33;6.20;;;;;;;;;;5051782;28;20455;-45
2022/10/18 03:27:16;;;;;;;9.13;5.77;;;;;;;;;;5051866;28;20671;-45
2022/10/18 03:29:42;;;;;;;7.57;5.47;;;;;;;;;;5051683;28;20864;-47
2022/10/18 03:32:07;;;;;;;7.67;6.23;;;;;;;;;;5051132;28;20827;-47
2022/10/18 03:34:33;;;;;;;14.43;6.23;;;;;;;;;;5051842;28;20959;-48
2022/10/18 03:36:59;;;;;;;9.83;6.00;;;;;;;;;;5051821;28;20776;-45
2022/10/18 03:39:25;;;;;;;9.67;6.10;;;;;;;;;;5051678;28;20860;-46
2022/10/18 03:41:51;;;;;;;8.83;6.10;;;;;;;;;;5050969;28;20498;-48
2022/10/18 03:44:17;;;;;;;6.63;5.90;;;;;;;;;;5051594;28;20372;-47
2022/10/18 03:46:43;;;;;;;10.27;5.73;;;;;;;;;;5051560;28;20369;-46
2022/10/18 03:49:09;;;;;;;9.70;5.70;;;;;;;;;;5051613;28;20400;-47
2022/10/18 03:51:35;;;;;;;12.63;6.60;;;;;;;;;;5051091;28;20783;-47
2022/10/18 03:54:01;;;;;;;17.23;5.70;;;;;;;;;;5051736;28;20753;-48
2022/10/18 03:56:27;;;;;;;8.37;6.50;;;;;;;;;;5051529;28;20388;-47
2022/10/18 03:58:53;;;;;;;12.73;5.60;;;;;;;;;;5051182;28;20401;-47
2022/10/18 04:01:19;;;;;;;9.30;5.87;;;;;;;;;;5050958;28;20517;-47
2022/10/18 04:03:45;;;;;;;9.00;5.70;;;;;;;;;;5055383;28;20466;-48
2022/10/18 04:06:12;;;;;;;7.30;5.70;;;;;;;;;;5055216;28;20402;-47
2022/10/18 04:08:37;;;;;;;9.70;5.87;;;;;;;;;;5055240;28;20480;-47
2022/10/18 04:11:07;;;;;;;9.87;6.30;;;;;;;;;;5054634;28;20570;-46
2022/10/18 04:13:33;;;;;;;7.30;5.73;;;;;;;;;;5054868;28;20892;-47
2022/10/18 04:15:58;;;;;;;9.23;6.17;;;;;;;;;;5055155;28;20401;-47
2022/10/18 04:18:24;;;;;;;12.03;6.70;;;;;;;;;;5048368;28;20427;-48
2022/10/18 04:20:50;;;;;;;11.90;6.53;;;;;;;;;;5035794;28;20464;-44
2022/10/18 04:23:16;;;;;;;11.13;6.33;;;;;;;;;;5034313;28;20402;-47
2022/10/18 04:25:42;;;;;;;11.20;6.57;;;;;;;;;;5035288;28;20414;-46
2022/10/18 04:28:08;;;;;;;9.87;6.93;;;;;;;;;;5049387;28;20408;-45
2022/10/18 04:30:34;;;;;;;10.80;8.20;;;;;;;;;;5053624;28;20377;-47
2022/10/18 04:33:00;;;;;;;7.07;6.37;;;;;;;;;;5052490;28;20404;-45
2022/10/18 04:35:27;;;;;;;10.93;7.77;;;;;;;;;;5053764;28;20457;-45
2022/10/18 04:37:53;;;;;;;9.03;6.50;;;;;;;;;;5053699;28;20814;-45
2022/10/18 04:40:19;;;;;;;9.73;7.00;;;;;;;;;;5054304;28;20768;-45
2022/10/18 04:42:45;;;;;;;8.90;7.40;;;;;;;;;;5055028;28;20454;-43
2022/10/18 04:45:11;;;;;;;14.27;8.90;;;;;;;;;;5054659;28;20780;-44
2022/10/18 04:47:37;;;;;;;10.03;8.03;;;;;;;;;;5054551;28;20410;-44
2022/10/18 04:50:04;;;;;;;18.57;7.60;;;;;;;;;;5054564;28;20939;-44
2022/10/18 04:52:30;;;;;;;12.77;6.40;;;;;;;;;;5053945;28;20454;-44
2022/10/18 04:54:56;;;;;;;7.83;6.80;;;;;;;;;;5053057;28;20974;-44
2022/10/18 04:57:22;;;;;;;8.40;7.07;;;;;;;;;;5054506;28;20405;-44
2022/10/18 04:59:48;;;;;;;10.87;7.37;;;;;;;;;;5054508;28;20404;-44
2022/10/18 05:02:13;;;;;;;13.50;7.20;;;;;;;;;;5053701;28;20467;-44
2022/10/18 05:04:39;;;;;;;10.07;7.17;;;;;;;;;;5054183;28;20427;-44
2022/10/18 05:07:05;;;;;;;12.67;6.97;;;;;;;;;;5054355;28;20496;-44
2022/10/18 05:09:32;;;;;;;14.10;8.07;;;;;;;;;;5054136;28;20427;-44
2022/10/18 05:11:58;;;;;;;9.10;7.20;;;;;;;;;;5053137;28;20392;-44
2022/10/18 05:14:24;;;;;;;12.20;8.03;;;;;;;;;;5053009;28;20428;-43
2022/10/18 05:16:50;;;;;;;8.43;7.17;;;;;;;;;;5054124;28;20411;-44
2022/10/18 05:19:16;;;;;;;8.10;6.40;;;;;;;;;;5053961;28;20432;-43
2022/10/18 05:21:42;;;;;;;11.10;7.93;;;;;;;;;;5053463;28;20449;-44
2022/10/18 05:24:10;;;;;;;9.63;7.10;;;;;;;;;;5052354;28;20394;-44
2022/10/18 05:26:36;;;;;;;17.00;7.30;;;;;;;;;;5053985;28;20373;-43
2022/10/18 05:29:03;;;;;;;13.97;7.10;;;;;;;;;;5053836;28;20418;-44
2022/10/18 05:31:28;;;;;;;10.67;6.80;;;;;;;;;;5053175;28;20433;-44
2022/10/18 05:33:54;;;;;;;10.03;6.97;;;;;;;;;;5053879;28;20515;-44
2022/10/18 05:36:20;;;;;;;9.47;7.10;;;;;;;;;;5053694;28;20418;-43
2022/10/18 05:38:47;;;;;;;10.97;7.83;;;;;;;;;;5053632;28;20467;-43
2022/10/18 05:41:13;;;;;;;10.93;7.73;;;;;;;;;;5053014;28;20449;-44
2022/10/18 05:43:39;;;;;;;10.00;7.73;;;;;;;;;;5053638;28;20959;-43
2022/10/18 05:46:07;;;;;;;15.43;7.37;;;;;;;;;;5053454;28;20481;-44
2022/10/18 05:48:33;;;;;;;13.60;7.30;;;;;;;;;;5053452;28;20434;-43
2022/10/18 05:50:59;;;;;;;14.47;7.47;;;;;;;;;;5052924;28;20422;-43
2022/10/18 05:53:25;;;;;;;12.60;8.23;;;;;;;;;;5053524;28;20413;-44
2022/10/18 05:55:51;;;;;;;13.67;8.70;;;;;;;;;;5053526;28;20859;-44
2022/10/18 05:58:17;;;;;;;11.73;7.27;;;;;;;;;;5053239;28;20428;-44
2022/10/18 06:00:43;;;;;;;9.37;7.90;;;;;;;;;;5052927;28;20399;-44
2022/10/18 06:03:09;;;;;;;12.37;8.10;;;;;;;;;;5052745;28;20423;-43
2022/10/18 06:05:35;;;;;;;13.67;8.87;;;;;;;;;;5053454;28;20443;-44
2022/10/18 06:08:01;;;;;;;13.30;8.40;;;;;;;;;;5053278;28;20414;-43
2022/10/18 06:10:27;;;;;;;9.13;7.10;;;;;;;;;;5053168;28;20502;-43
2022/10/18 06:12:53;;;;;;;15.73;8.00;;;;;;;;;;5052717;28;20407;-44
2022/10/18 06:15:19;;;;;;;11.20;6.80;;;;;;;;;;5052964;28;20411;-43
2022/10/18 06:17:45;;;;;;;13.00;7.90;;;;;;;;;;5052994;28;20378;-43
2022/10/18 06:20:11;;;;;;;12.10;8.60;;;;;;;;;;5052969;28;20433;-44
2022/10/18 06:22:37;;;;;;;17.83;8.53;;;;;;;;;;5052349;28;20458;-44
2022/10/18 06:25:03;;;;;;;13.83;7.97;;;;;;;;;;5052675;28;20858;-44
2022/10/18 06:27:30;;;;;;;11.10;7.70;;;;;;;;;;5052821;28;20815;-44
2022/10/18 06:29:56;;;;;;;9.37;6.93;;;;;;;;;;5052644;28;20896;-43
2022/10/18 06:32:22;;;;;;;16.63;8.37;;;;;;;;;;5052102;28;20381;-44
2022/10/18 06:34:48;;;;;;;13.93;8.20;;;;;;;;;;5052564;28;20387;-44
2022/10/18 06:37:14;;;;;;;13.60;7.87;;;;;;;;;;5052643;28;20417;-44
2022/10/18 06:39:40;;;;;;;13.10;8.40;;;;;;;;;;5052493;28;20923;-43
2022/10/18 06:42:06;;;;;;;18.73;8.80;;;;;;;;;;5051751;28;21008;-44
2022/10/18 06:44:32;;;;;;;13.20;8.13;;;;;;;;;;5052450;28;20494;-43
2022/10/18 06:46:58;;;;;;;12.90;9.10;;;;;;;;;;5052534;28;20440;-43
2022/10/18 06:49:24;;;;;;;17.77;9.00;;;;;;;;;;5052239;28;20923;-43
2022/10/18 06:51:50;;;;;;;11.77;7.50;;;;;;;;;;5051838;28;20380;-43
2022/10/18 06:54:16;;;;;;;11.87;8.23;;;;;;;;;;5052450;28;20419;-44
2022/10/18 06:56:42;;;;;;;11.33;8.43;;;;;;;;;;5052318;28;20489;-43
2022/10/18 06:59:07;;;;;;;10.17;7.57;;;;;;;;;;5052134;28;20528;-44
2022/10/18 07:01:33;;;;;;;10.83;7.13;;;;;;;;;;5051742;28;20443;-44
2022/10/18 07:03:59;;;;;;;14.73;7.60;;;;;;;;;;5052035;28;20474;-44
2022/10/18 07:06:25;;;;;;;10.70;7.00;;;;;;;;;;5052134;28;20761;-44
2022/10/18 07:08:52;;;;;;;15.50;8.67;;;;;;;;;;5051959;28;20398;-44
2022/10/18 07:11:20;;;;;;;17.00;8.70;;;;;;;;;;5051276;28;20490;-43
2022/10/18 07:13:46;;;;;;;14.40;8.77;;;;;;;;;;5052079;28;20523;-44
2022/10/18 07:16:14;;;;;;;13.97;8.97;;;;;;;;;;5051951;28;20903;-44
2022/10/18 07:18:43;;;;;;;22.90;11.40;;;;;;;;;;5051793;28;20420;-43
2022/10/18 07:21:11;;;;;;;16.67;9.73;;;;;;;;;;5051258;28;20450;-44
2022/10/18 07:23:38;;;;;;;16.57;10.87;;;;;;;;;;5052332;28;20381;-43
2022/10/18 07:26:11;;;;;;;17.70;10.77;;;;;;;;;;5051812;28;20371;-44
2022/10/18 07:28:37;;;;;;;16.30;11.03;;;;;;;;;;5051733;28;20425;-44
2022/10/18 07:31:06;;;;;;;14.43;10.53;;;;;;;;;;5051288;28;20381;-44
2022/10/18 07:33:33;;;;;;;16.40;10.03;;;;;;;;;;5051714;28;20389;-44
2022/10/18 07:36:03;;;;;;;22.77;10.60;;;;;;;;;;5048588;28;20416;-43
2022/10/18 07:38:29;;;;;;;18.47;10.40;;;;;;;;;;5050762;28;20837;-44
2022/10/18 07:40:57;;;;;;;21.90;10.10;;;;;;;;;;5051238;28;20437;-44
2022/10/18 07:43:23;;;;;;;18.23;8.73;;;;;;;;;;5051240;28;20382;-43
2022/10/18 07:45:53;;;;;;;23.63;11.00;;;;;;;;;;5051345;28;20389;-44
2022/10/18 07:48:18;;;;;;;16.00;10.40;;;;;;;;;;5051348;28;20399;-44
2022/10/18 07:50:44;;;;;;;18.87;9.87;;;;;;;;;;5051250;28;20554;-44
2022/10/18 07:53:10;;;;;;;14.10;9.63;;;;;;;;;;5051003;28;20776;-43
2022/10/18 07:55:36;;;;;;;19.83;10.83;;;;;;;;;;5051392;28;20775;-44
2022/10/18 07:58:02;;;;;;;16.83;9.90;;;;;;;;;;5051355;28;20403;-44
2022/10/18 08:00:28;;;;;;;17.97;10.70;;;;;;;;;;5051449;28;20371;-44
2022/10/18 08:02:58;;;;;;;25.73;13.10;;;;;;;;;;5050430;28;20467;-43
2022/10/18 08:05:24;;;;;;;24.53;12.37;;;;;;;;;;5051233;28;20399;-44
2022/10/18 08:07:50;;;;;;;22.37;12.70;;;;;;;;;;5051198;28;20450;-44
2022/10/18 08:10:16;;;;;;;23.33;14.27;;;;;;;;;;5051232;28;20764;-43
2022/10/18 08:12:42;;;;;;;20.70;11.90;;;;;;;;;;5050678;28;20813;-44
2022/10/18 08:15:08;;;;;;;20.03;12.33;;;;;;;;;;5051239;28;20462;-44
2022/10/18 08:17:34;;;;;;;19.50;11.20;;;;;;;;;;5051184;28;20380;-43
2022/10/18 08:20:00;;;;;;;21.17;11.47;;;;;;;;;;5050827;28;20442;-44
2022/10/18 08:22:26;;;;;;;20.73;12.40;;;;;;;;;;5048570;28;20492;-43
2022/10/18 08:24:52;;;;;;;22.37;12.37;;;;;;;;;;5050111;28;20397;-44
2022/10/18 08:27:18;;;;;;;20.47;13.80;;;;;;;;;;5050789;28;20376;-44
2022/10/18 08:29:44;;;;;;;21.97;13.37;;;;;;;;;;5050932;28;20447;-44
2022/10/18 08:32:10;;;;;;;21.73;14.30;;;;;;;;;;5050062;28;20425;-44
2022/10/18 08:34:36;;;;;;;24.10;12.60;;;;;;;;;;5050853;28;20390;-44
2022/10/18 08:37:02;;;;;;;26.63;12.47;;;;;;;;;;5051145;28;20413;-44
2022/10/18 08:39:28;;;;;;;23.30;13.73;;;;;;;;;;5050895;28;20438;-44
2022/10/18 08:42:01;;;;;;;25.53;14.33;;;;;;;;;;5050123;28;20503;-43
2022/10/18 08:44:28;;;;;;;22.33;14.73;;;;;;;;;;5050617;28;20489;-44
2022/10/18 08:47:02;;;;;;;26.73;15.30;;;;;;;;;;5050786;28;20452;-44
2022/10/18 08:49:36;;;;;;;29.63;13.87;;;;;;;;;;5053933;28;20406;-43
2022/10/18 08:52:03;;;;;;;24.00;15.27;;;;;;;;;;5053756;28;20379;-43
2022/10/18 08:54:29;;;;;;;27.40;14.60;;;;;;;;;;5054233;28;20387;-44
2022/10/18 08:57:00;;;;;;;34.03;18.40;;;;;;;;;;5054397;28;20885;-43
2022/10/18 08:59:28;;;;;;;33.53;19.60;;;;;;;;;;5054239;28;20435;-44
2022/10/18 09:02:03;;;;;;;34.80;19.63;;;;;;;;;;5053699;28;20928;-44
2022/10/18 09:04:40;;;;;;;43.17;23.37;;;;;;;;;;5054036;28;21031;-44
2022/10/18 09:07:18;;;;;;;45.23;23.83;;;;;;;;;;5054340;28;20399;-44
2022/10/18 09:10:03;;;;;;;49.33;25.30;;;;;;;;;;5054429;28;20394;-43
2022/10/18 09:12:28;;;;;;;51.50;27.33;;;;;;;;;;5053225;28;20370;-44
2022/10/18 09:15:09;;;;;;;56.10;25.77;;;;;;;;;;5053836;28;20716;-44
2022/10/18 09:17:42;;;;;;;50.63;27.53;;;;;;;;;;5054006;28;20414;-43
2022/10/18 09:20:08;;;;;;;50.43;26.97;;;;;;;;;;5053902;28;20419;-44
2022/10/18 09:22:48;;;;;;;65.77;30.10;;;;;;;;;;5052826;28;20910;-44
2022/10/18 09:25:18;;;;;;;51.90;28.03;;;;;;;;;;5048736;28;20510;-44
2022/10/18 09:27:55;;;;;;;59.60;27.63;;;;;;;;;;5042678;28;20418;-44
2022/10/18 09:30:25;;;;;;;61.50;29.53;;;;;;;;;;5050142;28;20760;-44
2022/10/18 09:32:57;;;;;;;71.60;29.40;;;;;;;;;;5052449;28;20387;-44
2022/10/18 09:35:24;;;;;;;56.67;29.17;;;;;;;;;;5052751;28;20481;-44
2022/10/18 09:37:53;;;;;;;67.20;28.50;;;;;;;;;;5051189;28;20453;-44
2022/10/18 09:40:22;;;;;;;62.90;28.77;;;;;;;;;;5051793;28;20427;-44
2022/10/18 09:42:53;;;;;;;70.93;30.13;;;;;;;;;;5050891;28;20457;-43
2022/10/18 09:45:31;;;;;;;58.07;29.20;;;;;;;;;;5052838;28;20402;-44
2022/10/18 09:48:03;;;;;;;56.23;29.20;;;;;;;;;;5053296;28;21068;-44
2022/10/18 09:50:38;;;;;;;67.07;28.67;;;;;;;;;;5053183;28;20376;-43
2022/10/18 09:53:12;;;;;;;69.40;29.63;;;;;;;;;;5052641;28;20409;-44
2022/10/18 09:55:42;;;;;;;64.00;29.67;;;;;;;;;;5053061;28;20433;-43
2022/10/18 09:58:10;;;;;;;60.87;28.53;;;;;;;;;;5052811;28;20936;-44
2022/10/18 10:00:44;;;;;;;71.30;29.73;;;;;;;;;;5052608;28;20383;-44
2022/10/18 10:03:14;;;;;;;66.43;29.07;;;;;;;;;;5052427;28;20395;-44
2022/10/18 10:05:40;;;;;;;59.87;29.83;;;;;;;;;;5052730;28;20398;-44
2022/10/18 10:08:06;;;;;;;60.17;29.77;;;;;;;;;;5052882;28;20443;-44
2022/10/18 10:10:33;;;;;;;60.17;29.80;;;;;;;;;;5052737;28;20380;-44
2022/10/18 10:13:23;;;;;;;56.47;30.00;;;;;;;;;;5052101;28;20405;-44
2022/10/18 10:16:00;;;;;;;59.90;30.27;;;;;;;;;;5051438;28;20464;-44
2022/10/18 10:18:31;;;;;;;56.30;28.37;;;;;;;;;;5052776;28;20458;-44
2022/10/18 10:20:59;;;;;;;55.40;29.87;;;;;;;;;;5052271;28;20412;-44
2022/10/18 10:23:43;;;;;;;90.80;31.20;;;;;;;;;;5052227;28;20393;-44
2022/10/18 10:26:24;;;;;;;49.70;26.77;;;;;;;;;;5052304;28;20952;-44
2022/10/18 10:28:50;;;;;;;45.80;27.87;;;;;;;;;;5052321;28;20421;-44
2022/10/18 10:31:16;;;;;;;44.27;25.90;;;;;;;;;;5051935;28;20851;-45
2022/10/18 10:33:45;;;;;;;40.00;24.47;;;;;;;;;;5052153;28;20404;-44
2022/10/18 10:36:18;;;;;;;42.50;24.83;;;;;;;;;;5052312;28;20402;-44
2022/10/18 10:38:44;;;;;;;55.33;29.63;;;;;;;;;;5052340;28;20427;-44
2022/10/18 10:41:19;;;;;;;45.10;25.87;;;;;;;;;;5052216;28;20463;-44
2022/10/18 10:43:45;;;;;;;41.73;25.70;;;;;;;;;;5052746;28;20410;-44
2022/10/18 10:46:12;;;;;;;50.93;24.80;;;;;;;;;;5051851;28;20501;-44
2022/10/18 10:48:49;;;;;;;45.43;23.80;;;;;;;;;;5052103;28;20445;-44
2022/10/18 10:51:16;;;;;;;38.30;24.90;;;;;;;;;;5051999;28;20392;-45
2022/10/18 10:53:44;;;;;;;51.73;26.40;;;;;;;;;;5051984;28;21003;-44
2022/10/18 10:56:22;;;;;;;43.77;24.70;;;;;;;;;;5052028;28;20402;-44
2022/10/18 10:58:48;;;;;;;43.80;25.90;;;;;;;;;;5051725;28;20515;-44
2022/10/18 11:01:18;;;;;;;39.13;25.17;;;;;;;;;;5051891;28;20448;-44
2022/10/18 11:03:49;;;;;;;33.50;22.63;;;;;;;;;;5051695;28;20421;-44
2022/10/18 11:06:30;;;;;;;39.70;24.33;;;;;;;;;;5051737;28;20420;-44
2022/10/18 11:08:57;;;;;;;35.03;23.27;;;;;;;;;;5051479;28;20425;-45
2022/10/18 11:11:29;;;;;;;31.07;21.20;;;;;;;;;;5050582;28;20414;-44
2022/10/18 11:14:03;;;;;;;41.13;22.80;;;;;;;;;;5051623;28;20541;-44
2022/10/18 11:16:32;;;;;;;36.70;23.13;;;;;;;;;;5051679;28;20411;-44
2022/10/18 11:19:01;;;;;;;37.93;25.60;;;;;;;;;;5051677;28;20448;-44
2022/10/18 11:21:29;;;;;;;37.47;22.77;;;;;;;;;;5051539;28;20508;-44
2022/10/18 11:23:56;;;;;;;33.13;23.07;;;;;;;;;;5051801;28;20492;-44
2022/10/18 11:26:35;;;;;;;38.37;25.47;;;;;;;;;;5051283;28;20404;-44
2022/10/18 11:29:10;;;;;;;50.57;24.80;;;;;;;;;;5051770;28;20421;-44
2022/10/18 11:31:54;;;;;;;41.73;24.27;;;;;;;;;;5051012;28;20423;-44
2022/10/18 11:34:39;;;;;;;41.73;26.47;;;;;;;;;;5051531;28;20413;-44
2022/10/18 11:37:06;;;;;;;42.60;25.80;;;;;;;;;;5051449;28;20435;-44
2022/10/18 11:39:49;;;;;;;42.70;26.23;;;;;;;;;;5051264;28;20492;-44
2022/10/18 11:42:54;;;;;;;42.60;26.10;;;;;;;;;;5050814;28;20495;-44
2022/10/18 11:45:34;;;;;;;35.40;23.77;;;;;;;;;;5029156;28;20414;-44
2022/10/18 11:48:09;;;;;;;36.37;22.33;;;;;;;;;;5029324;28;20520;-44
2022/10/18 11:50:44;;;;;;;37.57;22.73;;;;;;;;;;5043234;28;20462;-44
2022/10/18 11:53:13;;;;;;;42.33;22.90;;;;;;;;;;5050878;28;20411;-44
2022/10/18 11:55:39;;;;;;;36.83;23.50;;;;;;;;;;5051522;28;20488;-44
2022/10/18 11:58:19;;;;;;;29.70;20.43;;;;;;;;;;5051276;28;20493;-44
2022/10/18 12:01:04;;;;;;;30.27;21.33;;;;;;;;;;5051495;28;20469;-44
2022/10/18 12:03:34;;;;;;;34.27;21.53;;;;;;;;;;5050872;28;20566;-44
2022/10/18 12:06:02;;;;;;;33.00;22.40;;;;;;;;;;5051222;28;20491;-44
2022/10/18 12:08:37;;;;;;;30.30;19.67;;;;;;;;;;5051300;28;20514;-44
2022/10/18 12:11:07;;;;;;;33.17;20.93;;;;;;;;;;5051175;28;20492;-44
2022/10/18 12:13:36;;;;;;;24.80;16.57;;;;;;;;;;5050589;28;20416;-45
2022/10/18 12:16:03;;;;;;;20.07;16.80;;;;;;;;;;5051186;28;20511;-44
2022/10/18 12:18:29;;;;;;;27.10;18.13;;;;;;;;;;5051173;28;20424;-44
2022/10/18 12:20:57;;;;;;;27.37;18.90;;;;;;;;;;5050962;28;20408;-45
2022/10/18 12:23:29;;;;;;;20.27;15.13;;;;;;;;;;5052506;28;20401;-44
2022/10/18 12:25:58;;;;;;;25.20;14.73;;;;;;;;;;5055287;28;20428;-44
2022/10/18 12:28:37;;;;;;;21.10;13.97;;;;;;;;;;5054886;28;20785;-44
2022/10/18 12:31:24;;;;;;;20.57;14.60;;;;;;;;;;5054752;28;20412;-44
2022/10/18 12:33:56;;;;;;;21.93;15.00;;;;;;;;;;5054621;28;20539;-44
2022/10/18 12:36:22;;;;;;;21.87;13.97;;;;;;;;;;5054446;28;20397;-44
2022/10/18 12:38:50;;;;;;;28.60;13.40;;;;;;;;;;5054797;28;20417;-44
2022/10/18 12:41:20;;;;;;;21.30;14.93;;;;;;;;;;5054482;28;20285;-44
2022/10/18 12:43:53;;;;;;;21.40;15.33;;;;;;;;;;5054490;28;20893;-45
2022/10/18 12:46:19;;;;;;;20.13;14.77;;;;;;;;;;5054431;28;20398;-44
2022/10/18 12:48:48;;;;;;;20.00;15.80;;;;;;;;;;5054543;28;20439;-44
2022/10/18 12:51:16;;;;;;;27.37;16.37;;;;;;;;;;5054418;28;20450;-44
2022/10/18 12:53:46;;;;;;;22.30;14.83;;;;;;;;;;5040741;28;20905;-45
2022/10/18 12:56:40;;;;;;;22.33;14.63;;;;;;;;;;5034343;28;20488;-44
2022/10/18 12:59:15;;;;;;;17.53;11.90;;;;;;;;;;5033503;28;20996;-45
2022/10/18 13:02:04;;;;;;;17.93;11.77;;;;;;;;;;5033797;28;20937;-44
2022/10/18 13:04:31;;;;;;;15.20;11.40;;;;;;;;;;5030723;28;20496;-44
2022/10/18 13:07:01;;;;;;;15.97;11.40;;;;;;;;;;5034073;28;20430;-45
2022/10/18 13:09:37;;;;;;;15.30;10.80;;;;;;;;;;5034262;28;20410;-44
2022/10/18 13:12:09;;;;;;;20.67;9.93;;;;;;;;;;5033328;28;20835;-45
2022/10/18 13:14:39;;;;;;;17.80;10.40;;;;;;;;;;5034206;28;20410;-45
2022/10/18 13:17:10;;;;;;;10.50;8.77;;;;;;;;;;5034072;28;20402;-45
2022/10/18 13:19:39;;;;;;;8.80;7.47;;;;;;;;;;5034098;28;20433;-45
2022/10/18 13:22:24;;;;;;;12.47;6.97;;;;;;;;;;5033120;28;20498;-45
2022/10/18 13:25:00;;;;;;;14.80;6.47;;;;;;;;;;5033955;28;20821;-45
2022/10/18 13:27:45;;;;;;;7.77;5.60;;;;;;;;;;5033819;28;20402;-45
2022/10/18 13:30:17;;;;;;;6.77;4.60;;;;;;;;;;5033658;28;20418;-45
2022/10/18 13:32:46;;;;;;;18.77;5.07;;;;;;;;;;5032940;28;20460;-45
2022/10/18 13:35:30;;;;;;;9.63;5.07;;;;;;;;;;5032796;28;20394;-45
2022/10/18 13:37:59;;;;;;;7.23;4.77;;;;;;;;;;5033473;28;20909;-45
2022/10/18 13:40:25;;;;;;;16.17;5.57;;;;;;;;;;5034935;28;20409;-45
2022/10/18 13:42:51;;;;;;;9.80;4.93;;;;;;;;;;5052691;28;20456;-45
2022/10/18 13:45:32;;;;;;;12.93;5.83;;;;;;;;;;5053398;28;20404;-45
2022/10/18 13:48:17;;;;;;;9.13;5.30;;;;;;;;;;5053226;28;20393;-44
2022/10/18 13:50:44;;;;;;;16.47;4.83;;;;;;;;;;5053556;28;20781;-44
2022/10/18 13:53:22;;;;;;;9.10;4.97;;;;;;;;;;5053047;28;20744;-44
2022/10/18 13:55:51;;;;;;;10.20;5.50;;;;;;;;;;5053369;28;20401;-45
2022/10/18 13:58:36;;;;;;;10.27;4.70;;;;;;;;;;5052857;28;20833;-44
2022/10/18 14:01:11;;;;;;;7.70;4.87;;;;;;;;;;5053221;28;20950;-44
2022/10/18 14:03:56;;;;;;;12.83;4.67;;;;;;;;;;5052593;28;20429;-44
2022/10/18 14:06:24;;;;;;;13.63;4.37;;;;;;;;;;5053210;28;20476;-44
2022/10/18 14:08:55;;;;;;;12.33;5.03;;;;;;;;;;5052794;28;20428;-44
2022/10/18 14:11:39;;;;;;;7.67;4.80;;;;;;;;;;5052106;28;20764;-44
2022/10/18 14:14:14;;;;;;;11.07;4.30;;;;;;;;;;5053020;28;20908;-45
2022/10/18 14:16:48;;;;;;;15.33;3.60;;;;;;;;;;5052880;28;20408;-44
2022/10/18 14:19:22;;;;;;;6.20;3.03;;;;;;;;;;5052693;28;20417;-44
2022/10/18 14:21:53;;;;;;;5.53;2.60;;;;;;;;;;5052144;28;20550;-45
2022/10/18 14:24:23;;;;;;;7.60;3.00;;;;;;;;;;5053264;28;20397;-45
2022/10/18 14:27:08;;;;;;;9.37;3.00;;;;;;;;;;5052230;28;20900;-44
2022/10/18 14:29:34;;;;;;;6.53;3.10;;;;;;;;;;5052361;28;20413;-44
2022/10/18 14:32:00;;;;;;;10.33;3.97;;;;;;;;;;5052030;28;20897;-44
2022/10/18 14:34:26;;;;;;;7.73;2.60;;;;;;;;;;5052654;28;20484;-44
2022/10/18 14:36:52;;;;;;;8.60;3.23;;;;;;;;;;5052664;28;20459;-44
2022/10/18 14:39:19;;;;;;;4.53;2.90;;;;;;;;;;5050905;28;20437;-45
2022/10/18 14:41:55;;;;;;;8.60;4.07;;;;;;;;;;5050579;28;20449;-44